sensor_id;sensor_type;location;lat;lon;timestamp;P1;durP1;ratioP1;P2;durP2;ratioP2
79526;SDS011;68974;47.754;-3.364;2023-09-19T00:02:12;7.63;;;1.52;;
79526;SDS011;68974;47.754;-3.364;2023-09-19T00:04:37;6.10;;;1.67;;
79526;SDS011;68974;47.754;-3.364;2023-09-19T00:07:05;10.48;;;2.17;;
79526;SDS011;68974;47.754;-3.364;2023-09-19T00:09:30;7.85;;;1.83;;
79526;SDS011;68974;47.754;-3.364;2023-09-19T00:12:02;11.77;;;1.65;;
79526;SDS011;68974;47.754;-3.364;2023-09-19T00:14:28;7.63;;;2.13;;
79526;SDS011;68974;47.754;-3.364;2023-09-19T00:16:54;7.45;;;1.58;;
79526;SDS011;68974;47.754;-3.364;2023-09-19T00:19:19;10.38;;;1.75;;
79526;SDS011;68974;47.754;-3.364;2023-09-19T00:21:45;5.68;;;1.63;;
79526;SDS011;68974;47.754;-3.364;2023-09-19T00:24:12;9.45;;;1.60;;
79526;SDS011;68974;47.754;-3.364;2023-09-19T00:26:39;6.97;;;1.58;;
79526;SDS011;68974;47.754;-3.364;2023-09-19T00:29:04;10.15;;;1.73;;
79526;SDS011;68974;47.754;-3.364;2023-09-19T00:31:33;7.53;;;1.20;;
79526;SDS011;68974;47.754;-3.364;2023-09-19T00:33:59;11.63;;;1.90;;
79526;SDS011;68974;47.754;-3.364;2023-09-19T00:36:31;7.70;;;1.30;;
79526;SDS011;68974;47.754;-3.364;2023-09-19T00:38:58;7.32;;;1.75;;
79526;SDS011;68974;47.754;-3.364;2023-09-19T00:41:24;7.53;;;1.55;;
79526;SDS011;68974;47.754;-3.364;2023-09-19T00:43:50;7.38;;;1.95;;
79526;SDS011;68974;47.754;-3.364;2023-09-19T00:46:18;7.47;;;1.42;;
79526;SDS011;68974;47.754;-3.364;2023-09-19T00:48:44;4.50;;;1.27;;
79526;SDS011;68974;47.754;-3.364;2023-09-19T00:51:09;7.85;;;1.98;;
79526;SDS011;68974;47.754;-3.364;2023-09-19T00:53:35;7.50;;;1.58;;
79526;SDS011;68974;47.754;-3.364;2023-09-19T00:56:02;8.68;;;1.50;;
79526;SDS011;68974;47.754;-3.364;2023-09-19T00:58:32;7.75;;;1.35;;
79526;SDS011;68974;47.754;-3.364;2023-09-19T01:01:00;6.72;;;1.35;;
79526;SDS011;68974;47.754;-3.364;2023-09-19T01:03:27;11.88;;;1.60;;
79526;SDS011;68974;47.754;-3.364;2023-09-19T01:05:52;9.05;;;1.30;;
79526;SDS011;68974;47.754;-3.364;2023-09-19T01:08:18;13.50;;;1.70;;
79526;SDS011;68974;47.754;-3.364;2023-09-19T01:10:44;8.68;;;1.40;;
79526;SDS011;68974;47.754;-3.364;2023-09-19T01:13:31;5.72;;;1.23;;
79526;SDS011;68974;47.754;-3.364;2023-09-19T01:20:01;10.23;;;1.70;;
79526;SDS011;68974;47.754;-3.364;2023-09-19T01:22:21;12.85;;;1.63;;
79526;SDS011;68974;47.754;-3.364;2023-09-19T01:31:01;11.02;;;2.30;;
79526;SDS011;68974;47.754;-3.364;2023-09-19T01:36:24;9.25;;;2.70;;
79526;SDS011;68974;47.754;-3.364;2023-09-19T01:38:54;9.43;;;1.67;;
79526;SDS011;68974;47.754;-3.364;2023-09-19T01:41:33;8.98;;;1.55;;
79526;SDS011;68974;47.754;-3.364;2023-09-19T01:44:19;11.90;;;1.70;;
79526;SDS011;68974;47.754;-3.364;2023-09-19T01:47:04;9.43;;;2.60;;
79526;SDS011;68974;47.754;-3.364;2023-09-19T01:49:50;7.45;;;1.85;;
79526;SDS011;68974;47.754;-3.364;2023-09-19T01:52:27;5.30;;;1.60;;
79526;SDS011;68974;47.754;-3.364;2023-09-19T01:55:00;7.78;;;1.58;;
79526;SDS011;68974;47.754;-3.364;2023-09-19T02:00:26;12.30;;;2.10;;
79526;SDS011;68974;47.754;-3.364;2023-09-19T02:02:54;9.90;;;2.67;;
79526;SDS011;68974;47.754;-3.364;2023-09-19T02:05:23;7.80;;;1.98;;
79526;SDS011;68974;47.754;-3.364;2023-09-19T02:07:50;9.48;;;1.40;;
79526;SDS011;68974;47.754;-3.364;2023-09-19T02:10:15;8.65;;;1.48;;
79526;SDS011;68974;47.754;-3.364;2023-09-19T02:12:42;7.43;;;1.77;;
79526;SDS011;68974;47.754;-3.364;2023-09-19T02:15:08;10.73;;;2.83;;
79526;SDS011;68974;47.754;-3.364;2023-09-19T02:17:34;12.77;;;2.08;;
79526;SDS011;68974;47.754;-3.364;2023-09-19T02:19:59;12.95;;;2.63;;
79526;SDS011;68974;47.754;-3.364;2023-09-19T02:22:26;15.38;;;2.80;;
79526;SDS011;68974;47.754;-3.364;2023-09-19T02:24:52;11.55;;;2.00;;
79526;SDS011;68974;47.754;-3.364;2023-09-19T02:27:18;8.57;;;1.77;;
79526;SDS011;68974;47.754;-3.364;2023-09-19T02:29:44;11.15;;;2.00;;
79526;SDS011;68974;47.754;-3.364;2023-09-19T02:32:09;8.43;;;1.77;;
79526;SDS011;68974;47.754;-3.364;2023-09-19T02:34:35;14.93;;;2.33;;
79526;SDS011;68974;47.754;-3.364;2023-09-19T02:37:02;8.07;;;1.40;;
79526;SDS011;68974;47.754;-3.364;2023-09-19T02:39:30;8.80;;;1.58;;
79526;SDS011;68974;47.754;-3.364;2023-09-19T02:41:56;8.90;;;1.58;;
79526;SDS011;68974;47.754;-3.364;2023-09-19T02:44:21;13.82;;;1.80;;
79526;SDS011;68974;47.754;-3.364;2023-09-19T02:46:48;10.57;;;1.88;;
79526;SDS011;68974;47.754;-3.364;2023-09-19T02:49:14;9.05;;;1.85;;
79526;SDS011;68974;47.754;-3.364;2023-09-19T02:51:39;10.90;;;2.00;;
79526;SDS011;68974;47.754;-3.364;2023-09-19T02:54:05;13.05;;;1.92;;
79526;SDS011;68974;47.754;-3.364;2023-09-19T02:56:31;5.80;;;1.50;;
79526;SDS011;68974;47.754;-3.364;2023-09-19T02:58:57;8.07;;;1.58;;
79526;SDS011;68974;47.754;-3.364;2023-09-19T03:01:23;9.30;;;1.85;;
79526;SDS011;68974;47.754;-3.364;2023-09-19T03:03:48;8.18;;;1.58;;
79526;SDS011;68974;47.754;-3.364;2023-09-19T03:06:14;6.68;;;1.70;;
79526;SDS011;68974;47.754;-3.364;2023-09-19T03:08:40;6.72;;;1.60;;
79526;SDS011;68974;47.754;-3.364;2023-09-19T03:11:07;7.20;;;1.55;;
79526;SDS011;68974;47.754;-3.364;2023-09-19T03:13:36;9.77;;;2.10;;
79526;SDS011;68974;47.754;-3.364;2023-09-19T03:16:03;7.28;;;1.52;;
79526;SDS011;68974;47.754;-3.364;2023-09-19T03:18:31;9.32;;;2.13;;
79526;SDS011;68974;47.754;-3.364;2023-09-19T03:20:57;8.82;;;1.45;;
79526;SDS011;68974;47.754;-3.364;2023-09-19T03:23:24;9.30;;;2.50;;
79526;SDS011;68974;47.754;-3.364;2023-09-19T03:25:51;9.45;;;1.60;;
79526;SDS011;68974;47.754;-3.364;2023-09-19T03:28:17;9.25;;;1.67;;
79526;SDS011;68974;47.754;-3.364;2023-09-19T03:30:43;8.52;;;1.67;;
79526;SDS011;68974;47.754;-3.364;2023-09-19T03:33:09;6.60;;;1.60;;
79526;SDS011;68974;47.754;-3.364;2023-09-19T03:35:36;8.07;;;1.73;;
79526;SDS011;68974;47.754;-3.364;2023-09-19T03:38:03;8.52;;;1.67;;
79526;SDS011;68974;47.754;-3.364;2023-09-19T03:40:29;11.50;;;1.63;;
79526;SDS011;68974;47.754;-3.364;2023-09-19T03:42:55;7.97;;;1.75;;
79526;SDS011;68974;47.754;-3.364;2023-09-19T03:45:20;6.60;;;1.38;;
79526;SDS011;68974;47.754;-3.364;2023-09-19T03:47:46;8.65;;;1.42;;
79526;SDS011;68974;47.754;-3.364;2023-09-19T03:50:12;5.75;;;1.48;;
79526;SDS011;68974;47.754;-3.364;2023-09-19T03:52:42;13.57;;;2.38;;
79526;SDS011;68974;47.754;-3.364;2023-09-19T03:55:08;7.95;;;1.70;;
79526;SDS011;68974;47.754;-3.364;2023-09-19T03:57:35;12.40;;;1.52;;
79526;SDS011;68974;47.754;-3.364;2023-09-19T04:00:01;10.60;;;1.77;;
79526;SDS011;68974;47.754;-3.364;2023-09-19T04:02:27;11.73;;;3.03;;
79526;SDS011;68974;47.754;-3.364;2023-09-19T04:04:58;8.30;;;1.60;;
79526;SDS011;68974;47.754;-3.364;2023-09-19T04:07:24;9.27;;;2.15;;
79526;SDS011;68974;47.754;-3.364;2023-09-19T04:09:51;10.02;;;1.70;;
79526;SDS011;68974;47.754;-3.364;2023-09-19T04:12:18;9.60;;;2.15;;
79526;SDS011;68974;47.754;-3.364;2023-09-19T04:14:44;15.38;;;1.83;;
79526;SDS011;68974;47.754;-3.364;2023-09-19T04:17:09;8.70;;;1.50;;
79526;SDS011;68974;47.754;-3.364;2023-09-19T04:19:36;6.00;;;1.30;;
79526;SDS011;68974;47.754;-3.364;2023-09-19T04:22:01;6.35;;;1.27;;
79526;SDS011;68974;47.754;-3.364;2023-09-19T04:24:28;15.10;;;2.38;;
79526;SDS011;68974;47.754;-3.364;2023-09-19T04:26:53;9.27;;;1.97;;
79526;SDS011;68974;47.754;-3.364;2023-09-19T04:29:19;10.30;;;1.80;;
79526;SDS011;68974;47.754;-3.364;2023-09-19T04:31:45;5.72;;;1.40;;
79526;SDS011;68974;47.754;-3.364;2023-09-19T04:34:11;9.20;;;2.15;;
79526;SDS011;68974;47.754;-3.364;2023-09-19T04:36:41;7.53;;;1.75;;
79526;SDS011;68974;47.754;-3.364;2023-09-19T04:39:06;15.98;;;2.17;;
79526;SDS011;68974;47.754;-3.364;2023-09-19T04:41:33;11.18;;;2.03;;
79526;SDS011;68974;47.754;-3.364;2023-09-19T04:43:59;7.15;;;1.38;;
79526;SDS011;68974;47.754;-3.364;2023-09-19T04:46:25;13.50;;;2.03;;
79526;SDS011;68974;47.754;-3.364;2023-09-19T04:48:50;9.23;;;1.83;;
79526;SDS011;68974;47.754;-3.364;2023-09-19T04:51:15;9.15;;;2.20;;
79526;SDS011;68974;47.754;-3.364;2023-09-19T04:53:41;11.18;;;2.28;;
79526;SDS011;68974;47.754;-3.364;2023-09-19T04:56:07;7.28;;;1.92;;
79526;SDS011;68974;47.754;-3.364;2023-09-19T04:58:33;9.57;;;2.05;;
79526;SDS011;68974;47.754;-3.364;2023-09-19T05:00:59;11.85;;;1.90;;
79526;SDS011;68974;47.754;-3.364;2023-09-19T05:03:29;7.93;;;2.00;;
79526;SDS011;68974;47.754;-3.364;2023-09-19T05:05:54;12.77;;;1.95;;
79526;SDS011;68974;47.754;-3.364;2023-09-19T05:08:20;7.43;;;1.75;;
79526;SDS011;68974;47.754;-3.364;2023-09-19T05:13:12;11.85;;;2.08;;
79526;SDS011;68974;47.754;-3.364;2023-09-19T05:15:37;11.83;;;2.07;;
79526;SDS011;68974;47.754;-3.364;2023-09-19T05:18:04;10.40;;;1.92;;
79526;SDS011;68974;47.754;-3.364;2023-09-19T05:20:31;11.65;;;2.33;;
79526;SDS011;68974;47.754;-3.364;2023-09-19T05:23:02;7.00;;;2.08;;
79526;SDS011;68974;47.754;-3.364;2023-09-19T05:25:34;11.32;;;2.00;;
79526;SDS011;68974;47.754;-3.364;2023-09-19T05:28:02;8.63;;;1.80;;
79526;SDS011;68974;47.754;-3.364;2023-09-19T05:30:28;8.45;;;1.70;;
79526;SDS011;68974;47.754;-3.364;2023-09-19T05:32:54;10.38;;;1.77;;
79526;SDS011;68974;47.754;-3.364;2023-09-19T05:35:21;13.60;;;2.00;;
79526;SDS011;68974;47.754;-3.364;2023-09-19T05:37:48;9.30;;;1.98;;
79526;SDS011;68974;47.754;-3.364;2023-09-19T05:40:16;13.20;;;2.25;;
79526;SDS011;68974;47.754;-3.364;2023-09-19T05:42:45;8.27;;;1.90;;
79526;SDS011;68974;47.754;-3.364;2023-09-19T05:45:11;10.93;;;2.67;;
79526;SDS011;68974;47.754;-3.364;2023-09-19T05:47:37;12.38;;;1.98;;
79526;SDS011;68974;47.754;-3.364;2023-09-19T05:50:08;9.27;;;1.95;;
79526;SDS011;68974;47.754;-3.364;2023-09-19T05:52:35;8.30;;;1.85;;
79526;SDS011;68974;47.754;-3.364;2023-09-19T05:55:03;11.90;;;1.90;;
79526;SDS011;68974;47.754;-3.364;2023-09-19T05:57:33;12.02;;;2.45;;
79526;SDS011;68974;47.754;-3.364;2023-09-19T05:59:59;12.32;;;2.00;;
79526;SDS011;68974;47.754;-3.364;2023-09-19T06:02:26;10.02;;;2.53;;
79526;SDS011;68974;47.754;-3.364;2023-09-19T06:04:55;8.00;;;2.20;;
79526;SDS011;68974;47.754;-3.364;2023-09-19T06:07:24;12.60;;;1.98;;
79526;SDS011;68974;47.754;-3.364;2023-09-19T06:09:52;13.38;;;2.38;;
79526;SDS011;68974;47.754;-3.364;2023-09-19T06:12:21;8.40;;;2.20;;
79526;SDS011;68974;47.754;-3.364;2023-09-19T06:14:46;11.50;;;1.88;;
79526;SDS011;68974;47.754;-3.364;2023-09-19T06:17:12;9.50;;;2.08;;
79526;SDS011;68974;47.754;-3.364;2023-09-19T06:19:38;10.70;;;2.17;;
79526;SDS011;68974;47.754;-3.364;2023-09-19T06:22:03;9.85;;;2.30;;
79526;SDS011;68974;47.754;-3.364;2023-09-19T06:24:29;16.95;;;5.05;;
79526;SDS011;68974;47.754;-3.364;2023-09-19T06:26:55;13.82;;;2.28;;
79526;SDS011;68974;47.754;-3.364;2023-09-19T06:29:21;8.70;;;1.70;;
79526;SDS011;68974;47.754;-3.364;2023-09-19T06:31:48;7.60;;;1.70;;
79526;SDS011;68974;47.754;-3.364;2023-09-19T06:34:14;16.25;;;3.05;;
79526;SDS011;68974;47.754;-3.364;2023-09-19T06:36:43;12.27;;;1.92;;
79526;SDS011;68974;47.754;-3.364;2023-09-19T06:39:09;12.27;;;2.38;;
79526;SDS011;68974;47.754;-3.364;2023-09-19T06:41:36;15.30;;;2.70;;
79526;SDS011;68974;47.754;-3.364;2023-09-19T06:44:03;8.55;;;1.60;;
79526;SDS011;68974;47.754;-3.364;2023-09-19T06:46:30;12.57;;;2.75;;
79526;SDS011;68974;47.754;-3.364;2023-09-19T06:48:59;21.33;;;3.70;;
79526;SDS011;68974;47.754;-3.364;2023-09-19T06:51:25;10.80;;;2.00;;
79526;SDS011;68974;47.754;-3.364;2023-09-19T06:53:51;19.45;;;4.13;;
79526;SDS011;68974;47.754;-3.364;2023-09-19T06:56:19;8.75;;;2.05;;
79526;SDS011;68974;47.754;-3.364;2023-09-19T06:58:49;14.25;;;3.00;;
79526;SDS011;68974;47.754;-3.364;2023-09-19T07:01:14;10.85;;;2.47;;
79526;SDS011;68974;47.754;-3.364;2023-09-19T07:03:40;8.82;;;2.00;;
79526;SDS011;68974;47.754;-3.364;2023-09-19T07:06:05;15.43;;;3.20;;
79526;SDS011;68974;47.754;-3.364;2023-09-19T07:08:31;14.43;;;2.30;;
79526;SDS011;68974;47.754;-3.364;2023-09-19T07:10:56;11.77;;;2.45;;
79526;SDS011;68974;47.754;-3.364;2023-09-19T07:13:22;19.35;;;2.58;;
79526;SDS011;68974;47.754;-3.364;2023-09-19T07:15:47;9.45;;;2.55;;
79526;SDS011;68974;47.754;-3.364;2023-09-19T07:18:15;14.65;;;4.20;;
79526;SDS011;68974;47.754;-3.364;2023-09-19T07:20:41;17.58;;;3.65;;
79526;SDS011;68974;47.754;-3.364;2023-09-19T07:23:14;14.63;;;4.65;;
79526;SDS011;68974;47.754;-3.364;2023-09-19T07:25:43;14.52;;;4.38;;
79526;SDS011;68974;47.754;-3.364;2023-09-19T07:28:09;14.05;;;3.70;;
79526;SDS011;68974;47.754;-3.364;2023-09-19T07:30:35;12.98;;;2.58;;
79526;SDS011;68974;47.754;-3.364;2023-09-19T07:33:06;12.27;;;3.72;;
79526;SDS011;68974;47.754;-3.364;2023-09-19T07:35:33;13.35;;;2.85;;
79526;SDS011;68974;47.754;-3.364;2023-09-19T07:37:58;7.13;;;2.05;;
79526;SDS011;68974;47.754;-3.364;2023-09-19T07:40:26;15.27;;;3.95;;
79526;SDS011;68974;47.754;-3.364;2023-09-19T07:42:56;11.10;;;2.22;;
79526;SDS011;68974;47.754;-3.364;2023-09-19T07:45:26;9.25;;;2.30;;
79526;SDS011;68974;47.754;-3.364;2023-09-19T07:47:55;15.15;;;2.55;;
79526;SDS011;68974;47.754;-3.364;2023-09-19T07:50:21;12.40;;;1.90;;
79526;SDS011;68974;47.754;-3.364;2023-09-19T07:52:47;13.40;;;2.28;;
79526;SDS011;68974;47.754;-3.364;2023-09-19T07:55:15;9.52;;;2.55;;
79526;SDS011;68974;47.754;-3.364;2023-09-19T07:57:45;13.02;;;3.35;;
79526;SDS011;68974;47.754;-3.364;2023-09-19T08:00:11;11.18;;;2.15;;
79526;SDS011;68974;47.754;-3.364;2023-09-19T08:02:38;12.52;;;3.65;;
79526;SDS011;68974;47.754;-3.364;2023-09-19T08:07:32;10.27;;;1.90;;
79526;SDS011;68974;47.754;-3.364;2023-09-19T08:09:57;14.93;;;2.38;;
79526;SDS011;68974;47.754;-3.364;2023-09-19T08:12:23;11.80;;;3.08;;
79526;SDS011;68974;47.754;-3.364;2023-09-19T08:14:49;17.67;;;2.50;;
79526;SDS011;68974;47.754;-3.364;2023-09-19T08:17:15;9.82;;;2.08;;
79526;SDS011;68974;47.754;-3.364;2023-09-19T08:19:40;13.30;;;2.50;;
79526;SDS011;68974;47.754;-3.364;2023-09-19T08:22:07;6.53;;;1.85;;
79526;SDS011;68974;47.754;-3.364;2023-09-19T08:24:35;12.25;;;2.50;;
79526;SDS011;68974;47.754;-3.364;2023-09-19T08:27:01;9.95;;;2.83;;
79526;SDS011;68974;47.754;-3.364;2023-09-19T08:29:29;6.45;;;2.10;;
79526;SDS011;68974;47.754;-3.364;2023-09-19T08:31:56;14.07;;;2.40;;
79526;SDS011;68974;47.754;-3.364;2023-09-19T08:34:23;8.95;;;2.75;;
79526;SDS011;68974;47.754;-3.364;2023-09-19T08:36:53;14.15;;;2.40;;
79526;SDS011;68974;47.754;-3.364;2023-09-19T08:41:48;10.77;;;2.35;;
79526;SDS011;68974;47.754;-3.364;2023-09-19T08:44:13;9.00;;;2.38;;
79526;SDS011;68974;47.754;-3.364;2023-09-19T08:46:40;9.20;;;2.00;;
79526;SDS011;68974;47.754;-3.364;2023-09-19T08:52:05;9.02;;;2.45;;
79526;SDS011;68974;47.754;-3.364;2023-09-19T08:54:58;10.52;;;2.78;;
79526;SDS011;68974;47.754;-3.364;2023-09-19T08:57:29;9.07;;;2.85;;
79526;SDS011;68974;47.754;-3.364;2023-09-19T09:00:00;11.35;;;2.63;;
79526;SDS011;68974;47.754;-3.364;2023-09-19T09:02:27;13.98;;;2.78;;
79526;SDS011;68974;47.754;-3.364;2023-09-19T09:04:54;11.23;;;2.70;;
79526;SDS011;68974;47.754;-3.364;2023-09-19T09:07:22;14.50;;;3.17;;
79526;SDS011;68974;47.754;-3.364;2023-09-19T09:09:48;11.05;;;2.72;;
79526;SDS011;68974;47.754;-3.364;2023-09-19T09:12:14;11.18;;;2.67;;
79526;SDS011;68974;47.754;-3.364;2023-09-19T09:14:42;9.55;;;2.65;;
79526;SDS011;68974;47.754;-3.364;2023-09-19T09:17:11;12.25;;;2.15;;
79526;SDS011;68974;47.754;-3.364;2023-09-19T09:19:37;11.07;;;2.50;;
79526;SDS011;68974;47.754;-3.364;2023-09-19T09:22:09;10.00;;;2.58;;
79526;SDS011;68974;47.754;-3.364;2023-09-19T09:24:35;15.70;;;3.05;;
79526;SDS011;68974;47.754;-3.364;2023-09-19T09:27:04;12.55;;;2.90;;
79526;SDS011;68974;47.754;-3.364;2023-09-19T09:29:45;10.27;;;3.08;;
79526;SDS011;68974;47.754;-3.364;2023-09-19T09:32:25;10.15;;;2.65;;
79526;SDS011;68974;47.754;-3.364;2023-09-19T09:34:54;8.40;;;2.13;;
79526;SDS011;68974;47.754;-3.364;2023-09-19T09:37:24;8.95;;;2.58;;
79526;SDS011;68974;47.754;-3.364;2023-09-19T09:42:35;10.25;;;2.63;;
79526;SDS011;68974;47.754;-3.364;2023-09-19T09:45:25;9.50;;;2.53;;
79526;SDS011;68974;47.754;-3.364;2023-09-19T09:47:58;9.25;;;2.45;;
79526;SDS011;68974;47.754;-3.364;2023-09-19T09:50:32;6.93;;;2.15;;
79526;SDS011;68974;47.754;-3.364;2023-09-19T09:55:57;11.27;;;3.00;;
79526;SDS011;68974;47.754;-3.364;2023-09-19T09:58:35;7.78;;;2.90;;
79526;SDS011;68974;47.754;-3.364;2023-09-19T10:01:02;11.55;;;2.70;;
79526;SDS011;68974;47.754;-3.364;2023-09-19T10:06:08;8.80;;;2.58;;
79526;SDS011;68974;47.754;-3.364;2023-09-19T10:09:24;12.00;;;2.45;;
79526;SDS011;68974;47.754;-3.364;2023-09-19T10:11:48;8.85;;;2.20;;
79526;SDS011;68974;47.754;-3.364;2023-09-19T10:14:29;8.80;;;2.33;;
79526;SDS011;68974;47.754;-3.364;2023-09-19T10:16:59;9.25;;;2.63;;
79526;SDS011;68974;47.754;-3.364;2023-09-19T10:19:30;11.40;;;2.70;;
79526;SDS011;68974;47.754;-3.364;2023-09-19T10:22:01;13.35;;;3.00;;
79526;SDS011;68974;47.754;-3.364;2023-09-19T10:24:29;9.98;;;1.90;;
79526;SDS011;68974;47.754;-3.364;2023-09-19T10:26:56;11.05;;;2.63;;
79526;SDS011;68974;47.754;-3.364;2023-09-19T10:29:22;9.77;;;2.28;;
79526;SDS011;68974;47.754;-3.364;2023-09-19T10:31:53;15.73;;;2.83;;
79526;SDS011;68974;47.754;-3.364;2023-09-19T10:34:23;7.80;;;2.42;;
79526;SDS011;68974;47.754;-3.364;2023-09-19T10:36:50;10.13;;;2.47;;
79526;SDS011;68974;47.754;-3.364;2023-09-19T10:39:17;11.02;;;2.72;;
79526;SDS011;68974;47.754;-3.364;2023-09-19T10:44:12;11.05;;;2.90;;
79526;SDS011;68974;47.754;-3.364;2023-09-19T10:46:39;7.15;;;2.42;;
79526;SDS011;68974;47.754;-3.364;2023-09-19T10:49:05;10.57;;;2.45;;
79526;SDS011;68974;47.754;-3.364;2023-09-19T10:51:31;7.15;;;2.28;;
79526;SDS011;68974;47.754;-3.364;2023-09-19T10:54:08;12.35;;;2.65;;
79526;SDS011;68974;47.754;-3.364;2023-09-19T10:56:50;13.32;;;2.70;;
79526;SDS011;68974;47.754;-3.364;2023-09-19T10:59:20;11.80;;;3.10;;
79526;SDS011;68974;47.754;-3.364;2023-09-19T11:09:53;9.65;;;2.75;;
79526;SDS011;68974;47.754;-3.364;2023-09-19T11:15:00;11.23;;;3.03;;
79526;SDS011;68974;47.754;-3.364;2023-09-19T11:17:36;9.48;;;3.03;;
79526;SDS011;68974;47.754;-3.364;2023-09-19T11:30:36;9.65;;;2.83;;
79526;SDS011;68974;47.754;-3.364;2023-09-19T11:33:22;11.38;;;3.70;;
79526;SDS011;68974;47.754;-3.364;2023-09-19T11:44:32;18.65;;;5.65;;
79526;SDS011;68974;47.754;-3.364;2023-09-19T11:49:16;13.80;;;5.03;;
79526;SDS011;68974;47.754;-3.364;2023-09-19T11:51:46;6.72;;;2.60;;
79526;SDS011;68974;47.754;-3.364;2023-09-19T11:54:15;12.18;;;3.10;;
79526;SDS011;68974;47.754;-3.364;2023-09-19T11:56:43;8.82;;;2.58;;
79526;SDS011;68974;47.754;-3.364;2023-09-19T11:59:26;9.93;;;2.85;;
79526;SDS011;68974;47.754;-3.364;2023-09-19T12:01:55;13.75;;;3.55;;
79526;SDS011;68974;47.754;-3.364;2023-09-19T12:04:43;15.18;;;4.05;;
79526;SDS011;68974;47.754;-3.364;2023-09-19T12:07:15;15.32;;;3.75;;
79526;SDS011;68974;47.754;-3.364;2023-09-19T12:09:47;16.55;;;4.97;;
79526;SDS011;68974;47.754;-3.364;2023-09-19T12:12:27;14.40;;;3.95;;
79526;SDS011;68974;47.754;-3.364;2023-09-19T12:14:53;11.77;;;3.28;;
79526;SDS011;68974;47.754;-3.364;2023-09-19T12:17:22;13.57;;;4.20;;
79526;SDS011;68974;47.754;-3.364;2023-09-19T12:19:55;15.57;;;3.78;;
79526;SDS011;68974;47.754;-3.364;2023-09-19T12:22:21;10.15;;;2.90;;
79526;SDS011;68974;47.754;-3.364;2023-09-19T12:24:47;11.68;;;3.75;;
79526;SDS011;68974;47.754;-3.364;2023-09-19T12:27:13;17.70;;;4.57;;
79526;SDS011;68974;47.754;-3.364;2023-09-19T12:29:45;15.43;;;3.60;;
79526;SDS011;68974;47.754;-3.364;2023-09-19T12:32:16;11.45;;;3.45;;
79526;SDS011;68974;47.754;-3.364;2023-09-19T12:34:50;15.25;;;4.00;;
79526;SDS011;68974;47.754;-3.364;2023-09-19T12:37:17;14.73;;;3.50;;
79526;SDS011;68974;47.754;-3.364;2023-09-19T12:39:47;17.63;;;4.38;;
79526;SDS011;68974;47.754;-3.364;2023-09-19T12:42:22;14.23;;;3.83;;
79526;SDS011;68974;47.754;-3.364;2023-09-19T12:44:49;14.35;;;4.20;;
79526;SDS011;68974;47.754;-3.364;2023-09-19T12:47:22;11.45;;;4.18;;
79526;SDS011;68974;47.754;-3.364;2023-09-19T12:55:24;13.43;;;3.83;;
79526;SDS011;68974;47.754;-3.364;2023-09-19T12:58:11;15.85;;;4.00;;
79526;SDS011;68974;47.754;-3.364;2023-09-19T13:00:44;13.43;;;5.03;;
79526;SDS011;68974;47.754;-3.364;2023-09-19T13:03:14;14.60;;;4.28;;
79526;SDS011;68974;47.754;-3.364;2023-09-19T13:08:23;16.35;;;4.03;;
79526;SDS011;68974;47.754;-3.364;2023-09-19T13:11:16;15.07;;;4.10;;
79526;SDS011;68974;47.754;-3.364;2023-09-19T13:13:47;13.95;;;3.33;;
79526;SDS011;68974;47.754;-3.364;2023-09-19T13:16:18;16.27;;;4.00;;
79526;SDS011;68974;47.754;-3.364;2023-09-19T13:18:54;12.70;;;3.38;;
79526;SDS011;68974;47.754;-3.364;2023-09-19T13:21:34;15.27;;;4.15;;
79526;SDS011;68974;47.754;-3.364;2023-09-19T13:26:46;18.17;;;3.88;;
79526;SDS011;68974;47.754;-3.364;2023-09-19T13:29:11;15.95;;;3.10;;
79526;SDS011;68974;47.754;-3.364;2023-09-19T13:31:37;17.58;;;3.97;;
79526;SDS011;68974;47.754;-3.364;2023-09-19T13:34:06;16.02;;;3.58;;
79526;SDS011;68974;47.754;-3.364;2023-09-19T13:36:32;12.35;;;3.20;;
79526;SDS011;68974;47.754;-3.364;2023-09-19T13:38:58;13.00;;;3.92;;
79526;SDS011;68974;47.754;-3.364;2023-09-19T13:41:25;15.02;;;4.28;;
79526;SDS011;68974;47.754;-3.364;2023-09-19T13:43:51;9.15;;;3.65;;
79526;SDS011;68974;47.754;-3.364;2023-09-19T13:46:16;14.02;;;3.67;;
79526;SDS011;68974;47.754;-3.364;2023-09-19T13:48:50;10.93;;;3.50;;
79526;SDS011;68974;47.754;-3.364;2023-09-19T13:51:15;17.25;;;3.03;;
79526;SDS011;68974;47.754;-3.364;2023-09-19T13:53:41;13.10;;;3.03;;
79526;SDS011;68974;47.754;-3.364;2023-09-19T13:56:06;16.38;;;2.90;;
79526;SDS011;68974;47.754;-3.364;2023-09-19T13:58:32;15.82;;;3.42;;
79526;SDS011;68974;47.754;-3.364;2023-09-19T14:00:58;10.02;;;2.53;;
79526;SDS011;68974;47.754;-3.364;2023-09-19T14:03:24;12.73;;;2.95;;
79526;SDS011;68974;47.754;-3.364;2023-09-19T14:05:49;14.52;;;3.42;;
79526;SDS011;68974;47.754;-3.364;2023-09-19T14:08:16;11.90;;;2.80;;
79526;SDS011;68974;47.754;-3.364;2023-09-19T14:10:42;10.93;;;2.97;;
79526;SDS011;68974;47.754;-3.364;2023-09-19T14:13:07;11.80;;;3.45;;
79526;SDS011;68974;47.754;-3.364;2023-09-19T14:15:36;12.73;;;2.85;;
79526;SDS011;68974;47.754;-3.364;2023-09-19T14:18:03;12.50;;;2.85;;
79526;SDS011;68974;47.754;-3.364;2023-09-19T14:20:29;18.48;;;4.30;;
79526;SDS011;68974;47.754;-3.364;2023-09-19T14:22:55;10.73;;;3.03;;
79526;SDS011;68974;47.754;-3.364;2023-09-19T14:25:23;12.30;;;2.95;;
79526;SDS011;68974;47.754;-3.364;2023-09-19T14:27:49;7.18;;;2.53;;
79526;SDS011;68974;47.754;-3.364;2023-09-19T14:30:15;11.00;;;3.58;;
79526;SDS011;68974;47.754;-3.364;2023-09-19T14:32:41;9.38;;;3.05;;
79526;SDS011;68974;47.754;-3.364;2023-09-19T14:35:07;10.38;;;2.55;;
79526;SDS011;68974;47.754;-3.364;2023-09-19T14:37:34;12.95;;;4.65;;
79526;SDS011;68974;47.754;-3.364;2023-09-19T14:40:00;10.68;;;2.67;;
79526;SDS011;68974;47.754;-3.364;2023-09-19T14:42:25;15.43;;;3.63;;
79526;SDS011;68974;47.754;-3.364;2023-09-19T14:44:51;8.82;;;2.67;;
79526;SDS011;68974;47.754;-3.364;2023-09-19T14:47:16;11.93;;;3.05;;
79526;SDS011;68974;47.754;-3.364;2023-09-19T14:49:42;15.13;;;3.40;;
79526;SDS011;68974;47.754;-3.364;2023-09-19T14:52:08;11.95;;;2.83;;
79526;SDS011;68974;47.754;-3.364;2023-09-19T14:54:34;9.38;;;2.65;;
79526;SDS011;68974;47.754;-3.364;2023-09-19T14:57:00;12.93;;;2.80;;
79526;SDS011;68974;47.754;-3.364;2023-09-19T14:59:33;8.45;;;3.13;;
79526;SDS011;68974;47.754;-3.364;2023-09-19T15:02:02;14.88;;;3.80;;
79526;SDS011;68974;47.754;-3.364;2023-09-19T15:06:54;14.33;;;3.40;;
79526;SDS011;68974;47.754;-3.364;2023-09-19T15:09:20;19.58;;;4.20;;
79526;SDS011;68974;47.754;-3.364;2023-09-19T15:11:54;12.63;;;3.38;;
79526;SDS011;68974;47.754;-3.364;2023-09-19T15:14:20;11.65;;;3.53;;
79526;SDS011;68974;47.754;-3.364;2023-09-19T15:16:47;11.70;;;3.65;;
79526;SDS011;68974;47.754;-3.364;2023-09-19T15:19:13;14.70;;;3.65;;
79526;SDS011;68974;47.754;-3.364;2023-09-19T15:21:39;13.10;;;3.10;;
79526;SDS011;68974;47.754;-3.364;2023-09-19T15:24:05;14.32;;;3.30;;
79526;SDS011;68974;47.754;-3.364;2023-09-19T15:26:34;13.35;;;3.60;;
79526;SDS011;68974;47.754;-3.364;2023-09-19T15:29:04;14.73;;;3.28;;
79526;SDS011;68974;47.754;-3.364;2023-09-19T15:31:30;9.52;;;3.25;;
79526;SDS011;68974;47.754;-3.364;2023-09-19T15:33:55;13.60;;;3.75;;
79526;SDS011;68974;47.754;-3.364;2023-09-19T15:36:20;10.23;;;3.50;;
79526;SDS011;68974;47.754;-3.364;2023-09-19T15:39:06;8.63;;;3.10;;
79526;SDS011;68974;47.754;-3.364;2023-09-19T15:41:42;12.68;;;3.17;;
79526;SDS011;68974;47.754;-3.364;2023-09-19T15:44:14;16.92;;;4.47;;
79526;SDS011;68974;47.754;-3.364;2023-09-19T15:46:44;10.55;;;2.83;;
79526;SDS011;68974;47.754;-3.364;2023-09-19T15:49:10;12.60;;;2.80;;
79526;SDS011;68974;47.754;-3.364;2023-09-19T15:51:36;10.63;;;2.90;;
79526;SDS011;68974;47.754;-3.364;2023-09-19T15:54:06;10.63;;;2.90;;
79526;SDS011;68974;47.754;-3.364;2023-09-19T15:56:33;6.40;;;2.67;;